sensor_id;sensor_type;location;lat;lon;timestamp;pressure;altitude;pressure_sealevel;temperature
30001;BMP280;16845;48.670;9.000;2023-05-07T00:00:07;95450.16;;;12.67
30001;BMP280;16845;48.670;9.000;2023-05-07T00:02:33;95451.22;;;12.61
30001;BMP280;16845;48.670;9.000;2023-05-07T00:05:01;95452.72;;;12.65
30001;BMP280;16845;48.670;9.000;2023-05-07T00:07:28;95451.22;;;12.61
30001;BMP280;16845;48.670;9.000;2023-05-07T00:09:54;95447.16;;;12.57
30001;BMP280;16845;48.670;9.000;2023-05-07T00:12:21;95451.84;;;12.66
30001;BMP280;16845;48.670;9.000;2023-05-07T00:14:47;95450.84;;;12.70
30001;BMP280;16845;48.670;9.000;2023-05-07T00:17:13;95450.03;;;12.70
30001;BMP280;16845;48.670;9.000;2023-05-07T00:19:40;95455.13;;;12.68
30001;BMP280;16845;48.670;9.000;2023-05-07T00:22:08;95447.56;;;12.68
30001;BMP280;16845;48.670;9.000;2023-05-07T00:24:34;95447.34;;;12.74
30001;BMP280;16845;48.670;9.000;2023-05-07T00:27:01;95445.59;;;12.76
30001;BMP280;16845;48.670;9.000;2023-05-07T00:29:27;95447.44;;;12.71
30001;BMP280;16845;48.670;9.000;2023-05-07T00:31:54;95447.44;;;12.71
30001;BMP280;16845;48.670;9.000;2023-05-07T00:34:20;95446.06;;;12.64
30001;BMP280;16845;48.670;9.000;2023-05-07T00:36:47;95446.19;;;12.61
30001;BMP280;16845;48.670;9.000;2023-05-07T00:39:14;95437.97;;;12.56
30001;BMP280;16845;48.670;9.000;2023-05-07T00:41:41;95429.59;;;12.56
30001;BMP280;16845;48.670;9.000;2023-05-07T00:44:07;95432.00;;;12.59
30001;BMP280;16845;48.670;9.000;2023-05-07T00:46:34;95429.59;;;12.56
30001;BMP280;16845;48.670;9.000;2023-05-07T00:49:01;95430.19;;;12.62
30001;BMP280;16845;48.670;9.000;2023-05-07T00:51:28;95427.56;;;12.65
30001;BMP280;16845;48.670;9.000;2023-05-07T00:53:55;95420.19;;;12.61
30001;BMP280;16845;48.670;9.000;2023-05-07T00:56:23;95430.38;;;12.58
30001;BMP280;16845;48.670;9.000;2023-05-07T00:58:50;95428.47;;;12.63
30001;BMP280;16845;48.670;9.000;2023-05-07T01:01:16;95431.06;;;12.61
30001;BMP280;16845;48.670;9.000;2023-05-07T01:03:43;95424.41;;;12.60
30001;BMP280;16845;48.670;9.000;2023-05-07T01:06:10;95429.31;;;12.63
30001;BMP280;16845;48.670;9.000;2023-05-07T01:08:39;95437.97;;;12.56
30001;BMP280;16845;48.670;9.000;2023-05-07T01:11:07;95429.66;;;12.54
30001;BMP280;16845;48.670;9.000;2023-05-07T01:13:36;95436.44;;;12.52
30001;BMP280;16845;48.670;9.000;2023-05-07T01:16:03;95428.06;;;12.52
30001;BMP280;16845;48.670;9.000;2023-05-07T01:18:30;95421.28;;;12.54
30001;BMP280;16845;48.670;9.000;2023-05-07T01:20:58;95424.00;;;12.49
30001;BMP280;16845;48.670;9.000;2023-05-07T01:23:27;95419.75;;;12.50
30001;BMP280;16845;48.670;9.000;2023-05-07T01:25:54;95427.56;;;12.44
30001;BMP280;16845;48.670;9.000;2023-05-07T01:28:21;95425.84;;;12.44
30001;BMP280;16845;48.670;9.000;2023-05-07T01:30:52;95415.72;;;12.46
30001;BMP280;16845;48.670;9.000;2023-05-07T01:33:20;95424.22;;;12.43
30001;BMP280;16845;48.670;9.000;2023-05-07T01:35:48;95421.47;;;12.49
30001;BMP280;16845;48.670;9.000;2023-05-07T01:38:16;95425.09;;;12.42
30001;BMP280;16845;48.670;9.000;2023-05-07T01:40:44;95427.06;;;12.34
30001;BMP280;16845;48.670;9.000;2023-05-07T01:43:11;95421.91;;;12.37
30001;BMP280;16845;48.670;9.000;2023-05-07T01:45:38;95423.91;;;12.29
30001;BMP280;16845;48.670;9.000;2023-05-07T01:48:07;95437.38;;;12.28
30001;BMP280;16845;48.670;9.000;2023-05-07T01:50:35;95435.72;;;12.27
30001;BMP280;16845;48.670;9.000;2023-05-07T01:53:02;95428.00;;;12.32
30001;BMP280;16845;48.670;9.000;2023-05-07T01:55:28;95427.63;;;12.19
30001;BMP280;16845;48.670;9.000;2023-05-07T01:57:56;95426.72;;;12.22
30001;BMP280;16845;48.670;9.000;2023-05-07T02:00:23;95417.44;;;12.22
30001;BMP280;16845;48.670;9.000;2023-05-07T02:02:49;95430.28;;;12.16
30001;BMP280;16845;48.670;9.000;2023-05-07T02:05:16;95431.78;;;12.20
30001;BMP280;16845;48.670;9.000;2023-05-07T02:07:42;95434.50;;;12.14
30001;BMP280;16845;48.670;9.000;2023-05-07T02:10:09;95425.25;;;12.16
30001;BMP280;16845;48.670;9.000;2023-05-07T02:12:36;95433.66;;;12.15
30001;BMP280;16845;48.670;9.000;2023-05-07T02:15:05;95427.19;;;12.08
30001;BMP280;16845;48.670;9.000;2023-05-07T02:17:32;95422.94;;;12.10
30001;BMP280;16845;48.670;9.000;2023-05-07T02:19:59;95427.38;;;12.04
30001;BMP280;16845;48.670;9.000;2023-05-07T02:22:25;95430.28;;;11.93
30001;BMP280;16845;48.670;9.000;2023-05-07T02:24:51;95425.25;;;11.93
30001;BMP280;16845;48.670;9.000;2023-05-07T02:27:18;95434.19;;;12.00
30001;BMP280;16845;48.670;9.000;2023-05-07T02:29:44;95428.84;;;11.86
30001;BMP280;16845;48.670;9.000;2023-05-07T02:32:12;95433.88;;;11.86
30001;BMP280;16845;48.670;9.000;2023-05-07T02:34:39;95438.91;;;11.86
30001;BMP280;16845;48.670;9.000;2023-05-07T02:37:05;95431.50;;;11.82
30001;BMP280;16845;48.670;9.000;2023-05-07T02:39:32;95441.84;;;11.74
30001;BMP280;16845;48.670;9.000;2023-05-07T02:41:58;95442.91;;;11.68
30001;BMP280;16845;48.670;9.000;2023-05-07T02:44:24;95439.91;;;11.58
30001;BMP280;16845;48.670;9.000;2023-05-07T02:46:51;95439.94;;;11.57
30001;BMP280;16845;48.670;9.000;2023-05-07T02:49:19;95432.31;;;11.60
30001;BMP280;16845;48.670;9.000;2023-05-07T02:51:45;95432.41;;;11.57
30001;BMP280;16845;48.670;9.000;2023-05-07T02:54:12;95430.72;;;11.57
30001;BMP280;16845;48.670;9.000;2023-05-07T02:56:38;95422.47;;;11.52
30001;BMP280;16845;48.670;9.000;2023-05-07T02:59:04;95421.06;;;11.45
30001;BMP280;16845;48.670;9.000;2023-05-07T03:01:31;95422.09;;;11.40
30001;BMP280;16845;48.670;9.000;2023-05-07T03:03:57;95423.22;;;11.31
30001;BMP280;16845;48.670;9.000;2023-05-07T03:06:25;95412.03;;;11.40
30001;BMP280;16845;48.670;9.000;2023-05-07T03:08:52;95413.63;;;11.42
30001;BMP280;16845;48.670;9.000;2023-05-07T03:11:18;95405.56;;;11.33
30001;BMP280;16845;48.670;9.000;2023-05-07T03:13:45;95410.59;;;11.33
30001;BMP280;16845;48.670;9.000;2023-05-07T03:16:11;95415.84;;;11.27
30001;BMP280;16845;48.670;9.000;2023-05-07T03:18:37;95409.25;;;11.23
30001;BMP280;16845;48.670;9.000;2023-05-07T03:21:04;95414.28;;;11.23
30001;BMP280;16845;48.670;9.000;2023-05-07T03:23:32;95422.69;;;11.22
30001;BMP280;16845;48.670;9.000;2023-05-07T03:25:59;95424.25;;;11.26
30001;BMP280;16845;48.670;9.000;2023-05-07T03:28:25;95409.25;;;11.23
30001;BMP280;16845;48.670;9.000;2023-05-07T03:30:51;95414.19;;;11.26
30001;BMP280;16845;48.670;9.000;2023-05-07T03:33:18;95417.59;;;11.25
30001;BMP280;16845;48.670;9.000;2023-05-07T03:35:44;95407.53;;;11.25
30001;BMP280;16845;48.670;9.000;2023-05-07T03:38:11;95412.56;;;11.25
30001;BMP280;16845;48.670;9.000;2023-05-07T03:40:39;95412.38;;;11.29
30001;BMP280;16845;48.670;9.000;2023-05-07T03:43:05;95413.47;;;11.22
30001;BMP280;16845;48.670;9.000;2023-05-07T03:45:32;95414.38;;;11.20
30001;BMP280;16845;48.670;9.000;2023-05-07T03:47:58;95408.56;;;11.19
30001;BMP280;16845;48.670;9.000;2023-05-07T03:50:24;95407.63;;;11.22
30001;BMP280;16845;48.670;9.000;2023-05-07T03:52:51;95410.34;;;11.16
30001;BMP280;16845;48.670;9.000;2023-05-07T03:55:17;95409.63;;;11.12
30001;BMP280;16845;48.670;9.000;2023-05-07T03:57:45;95410.44;;;11.13
30001;BMP280;16845;48.670;9.000;2023-05-07T04:00:13;95413.06;;;11.10
30001;BMP280;16845;48.670;9.000;2023-05-07T04:02:39;95408.09;;;11.08
30001;BMP280;16845;48.670;9.000;2023-05-07T04:05:07;95403.13;;;11.07
30001;BMP280;16845;48.670;9.000;2023-05-07T04:07:33;95418.84;;;11.12
30001;BMP280;16845;48.670;9.000;2023-05-07T04:09:59;95420.66;;;11.08
30001;BMP280;16845;48.670;9.000;2023-05-07T04:12:26;95429.13;;;11.04
30001;BMP280;16845;48.670;9.000;2023-05-07T04:14:54;95435.00;;;11.05
30001;BMP280;16845;48.670;9.000;2023-05-07T04:17:20;95420.72;;;11.05
30001;BMP280;16845;48.670;9.000;2023-05-07T04:19:47;95426.69;;;11.03
30001;BMP280;16845;48.670;9.000;2023-05-07T04:22:13;95430.91;;;11.01
30001;BMP280;16845;48.670;9.000;2023-05-07T04:24:39;95441.81;;;11.00
30001;BMP280;16845;48.670;9.000;2023-05-07T04:27:06;95436.72;;;11.03
30001;BMP280;16845;48.670;9.000;2023-05-07T04:29:32;95435.84;;;11.04
30001;BMP280;16845;48.670;9.000;2023-05-07T04:32:00;95427.34;;;11.08
30001;BMP280;16845;48.670;9.000;2023-05-07T04:34:27;95437.38;;;11.08
30001;BMP280;16845;48.670;9.000;2023-05-07T04:36:53;95427.97;;;11.14
30001;BMP280;16845;48.670;9.000;2023-05-07T04:39:20;95429.97;;;11.05
30001;BMP280;16845;48.670;9.000;2023-05-07T04:41:46;95429.69;;;11.14
30001;BMP280;16845;48.670;9.000;2023-05-07T04:44:13;95435.47;;;11.16
30001;BMP280;16845;48.670;9.000;2023-05-07T04:46:39;95436.22;;;11.18
30001;BMP280;16845;48.670;9.000;2023-05-07T04:49:07;95437.00;;;11.20
30001;BMP280;16845;48.670;9.000;2023-05-07T04:51:33;95435.81;;;11.30
30001;BMP280;16845;48.670;9.000;2023-05-07T04:54:00;95442.28;;;11.37
30001;BMP280;16845;48.670;9.000;2023-05-07T04:56:27;95435.13;;;11.51
30001;BMP280;16845;48.670;9.000;2023-05-07T04:58:54;95435.75;;;11.57
30001;BMP280;16845;48.670;9.000;2023-05-07T05:01:20;95447.94;;;11.68
30001;BMP280;16845;48.670;9.000;2023-05-07T05:03:47;95449.50;;;11.72
30001;BMP280;16845;48.670;9.000;2023-05-07T05:06:14;95457.91;;;11.71
30001;BMP280;16845;48.670;9.000;2023-05-07T05:08:41;95459.59;;;11.70
30001;BMP280;16845;48.670;9.000;2023-05-07T05:11:07;95455.94;;;12.01
30001;BMP280;16845;48.670;9.000;2023-05-07T05:13:34;95455.84;;;12.27
30001;BMP280;16845;48.670;9.000;2023-05-07T05:16:00;95452.09;;;12.60
30001;BMP280;16845;48.670;9.000;2023-05-07T05:18:27;95461.72;;;12.92
30001;BMP280;16845;48.670;9.000;2023-05-07T05:20:53;95458.13;;;12.99
30001;BMP280;16845;48.670;9.000;2023-05-07T05:23:21;95456.75;;;13.12
30001;BMP280;16845;48.670;9.000;2023-05-07T05:25:48;95460.91;;;13.13
30001;BMP280;16845;48.670;9.000;2023-05-07T05:28:14;95463.47;;;13.33
30001;BMP280;16845;48.670;9.000;2023-05-07T05:30:40;95463.81;;;13.46
30001;BMP280;16845;48.670;9.000;2023-05-07T05:33:07;95466.88;;;13.72
30001;BMP280;16845;48.670;9.000;2023-05-07T05:35:33;95475.16;;;13.94
30001;BMP280;16845;48.670;9.000;2023-05-07T05:38:00;95464.50;;;14.07
30001;BMP280;16845;48.670;9.000;2023-05-07T05:40:28;95463.34;;;14.14
30001;BMP280;16845;48.670;9.000;2023-05-07T05:42:54;95465.53;;;14.42
30001;BMP280;16845;48.670;9.000;2023-05-07T05:45:20;95455.00;;;14.32
30001;BMP280;16845;48.670;9.000;2023-05-07T05:47:47;95453.09;;;14.56
30001;BMP280;16845;48.670;9.000;2023-05-07T05:50:13;95463.41;;;14.87
30001;BMP280;16845;48.670;9.000;2023-05-07T05:52:40;95459.66;;;15.31
30001;BMP280;16845;48.670;9.000;2023-05-07T05:55:07;95456.44;;;15.27
30001;BMP280;16845;48.670;9.000;2023-05-07T05:57:35;95463.53;;;15.72
30001;BMP280;16845;48.670;9.000;2023-05-07T06:00:02;95462.09;;;16.16
30001;BMP280;16845;48.670;9.000;2023-05-07T06:02:29;95461.28;;;15.66
30001;BMP280;16845;48.670;9.000;2023-05-07T06:04:56;95457.22;;;15.96
30001;BMP280;16845;48.670;9.000;2023-05-07T06:07:23;95449.97;;;16.05
30001;BMP280;16845;48.670;9.000;2023-05-07T06:09:49;95447.59;;;16.35
30001;BMP280;16845;48.670;9.000;2023-05-07T06:12:15;95446.66;;;16.53
30001;BMP280;16845;48.670;9.000;2023-05-07T06:14:44;95448.22;;;16.55
30001;BMP280;16845;48.670;9.000;2023-05-07T06:17:10;95447.75;;;16.49
30001;BMP280;16845;48.670;9.000;2023-05-07T06:19:36;95451.09;;;16.64
30001;BMP280;16845;48.670;9.000;2023-05-07T06:22:03;95448.94;;;17.03
30001;BMP280;16845;48.670;9.000;2023-05-07T06:24:29;95444.91;;;17.15
30001;BMP280;16845;48.670;9.000;2023-05-07T06:26:56;95446.59;;;17.30
30001;BMP280;16845;48.670;9.000;2023-05-07T06:29:23;95452.56;;;17.44
30001;BMP280;16845;48.670;9.000;2023-05-07T06:31:51;95453.28;;;17.46
30001;BMP280;16845;48.670;9.000;2023-05-07T06:34:17;95446.91;;;17.55
30001;BMP280;16845;48.670;9.000;2023-05-07T06:36:44;95449.50;;;17.53
30001;BMP280;16845;48.670;9.000;2023-05-07T06:39:10;95448.75;;;17.22
30001;BMP280;16845;48.670;9.000;2023-05-07T06:41:37;95450.66;;;17.48
30001;BMP280;16845;48.670;9.000;2023-05-07T06:44:04;95450.56;;;17.79
30001;BMP280;16845;48.670;9.000;2023-05-07T06:46:30;95435.91;;;18.40
30001;BMP280;16845;48.670;9.000;2023-05-07T06:48:58;95443.72;;;18.37
30001;BMP280;16845;48.670;9.000;2023-05-07T06:51:24;95443.41;;;17.99
30001;BMP280;16845;48.670;9.000;2023-05-07T06:53:51;95438.88;;;18.74
30001;BMP280;16845;48.670;9.000;2023-05-07T06:56:17;95442.53;;;19.23
30001;BMP280;16845;48.670;9.000;2023-05-07T06:58:43;95433.09;;;19.76
30001;BMP280;16845;48.670;9.000;2023-05-07T07:01:10;95439.94;;;20.13
30001;BMP280;16845;48.670;9.000;2023-05-07T07:03:36;95440.63;;;19.78
30001;BMP280;16845;48.670;9.000;2023-05-07T07:06:04;95439.81;;;20.40
30001;BMP280;16845;48.670;9.000;2023-05-07T07:08:31;95443.81;;;20.92
30001;BMP280;16845;48.670;9.000;2023-05-07T07:10:58;95439.16;;;21.33
30001;BMP280;16845;48.670;9.000;2023-05-07T07:13:24;95441.25;;;21.63
30001;BMP280;16845;48.670;9.000;2023-05-07T07:15:51;95424.84;;;21.88
30001;BMP280;16845;48.670;9.000;2023-05-07T07:18:17;95427.78;;;22.28
30001;BMP280;16845;48.670;9.000;2023-05-07T07:20:44;95424.88;;;22.21
30001;BMP280;16845;48.670;9.000;2023-05-07T07:23:12;95429.22;;;22.32
30001;BMP280;16845;48.670;9.000;2023-05-07T07:25:38;95438.22;;;21.92
30001;BMP280;16845;48.670;9.000;2023-05-07T07:28:05;95434.31;;;22.21
30001;BMP280;16845;48.670;9.000;2023-05-07T07:30:31;95428.72;;;22.93
30001;BMP280;16845;48.670;9.000;2023-05-07T07:32:58;95431.34;;;23.76
30001;BMP280;16845;48.670;9.000;2023-05-07T07:35:24;95429.66;;;23.34
30001;BMP280;16845;48.670;9.000;2023-05-07T07:37:51;95422.31;;;22.98
30001;BMP280;16845;48.670;9.000;2023-05-07T07:40:19;95429.06;;;22.88
30001;BMP280;16845;48.670;9.000;2023-05-07T07:42:45;95430.31;;;23.16
30001;BMP280;16845;48.670;9.000;2023-05-07T07:45:12;95429.00;;;22.68
30001;BMP280;16845;48.670;9.000;2023-05-07T07:47:38;95438.53;;;21.76
30001;BMP280;16845;48.670;9.000;2023-05-07T07:50:06;95426.50;;;22.22
30001;BMP280;16845;48.670;9.000;2023-05-07T07:52:33;95433.34;;;22.00
30001;BMP280;16845;48.670;9.000;2023-05-07T07:54:59;95429.56;;;22.71
30001;BMP280;16845;48.670;9.000;2023-05-07T07:57:27;95436.91;;;23.29
30001;BMP280;16845;48.670;9.000;2023-05-07T07:59:53;95439.44;;;23.40
30001;BMP280;16845;48.670;9.000;2023-05-07T08:02:20;95444.06;;;22.93
30001;BMP280;16845;48.670;9.000;2023-05-07T08:04:46;95441.47;;;23.26
30001;BMP280;16845;48.670;9.000;2023-05-07T08:07:13;95440.19;;;24.04
30001;BMP280;16845;48.670;9.000;2023-05-07T08:09:40;95436.41;;;24.28
30001;BMP280;16845;48.670;9.000;2023-05-07T08:12:06;95438.97;;;25.46
30001;BMP280;16845;48.670;9.000;2023-05-07T08:14:34;95440.47;;;25.68
30001;BMP280;16845;48.670;9.000;2023-05-07T08:17:01;95436.50;;;26.67
30001;BMP280;16845;48.670;9.000;2023-05-07T08:19:27;95436.09;;;27.42
30001;BMP280;16845;48.670;9.000;2023-05-07T08:21:54;95424.50;;;27.11
30001;BMP280;16845;48.670;9.000;2023-05-07T08:24:20;95421.72;;;26.32
30001;BMP280;16845;48.670;9.000;2023-05-07T08:26:47;95437.47;;;25.34
30001;BMP280;16845;48.670;9.000;2023-05-07T08:29:13;95437.97;;;26.23
30001;BMP280;16845;48.670;9.000;2023-05-07T08:31:41;95427.34;;;26.55
30001;BMP280;16845;48.670;9.000;2023-05-07T08:34:08;95428.00;;;27.37
30001;BMP280;16845;48.670;9.000;2023-05-07T08:36:35;95420.50;;;28.47
30001;BMP280;16845;48.670;9.000;2023-05-07T08:39:02;95419.53;;;28.74
30001;BMP280;16845;48.670;9.000;2023-05-07T08:41:29;95425.19;;;28.77
30001;BMP280;16845;48.670;9.000;2023-05-07T08:43:58;95420.41;;;28.31
30001;BMP280;16845;48.670;9.000;2023-05-07T08:46:25;95416.56;;;28.61
30001;BMP280;16845;48.670;9.000;2023-05-07T08:48:53;95427.03;;;28.08
30001;BMP280;16845;48.670;9.000;2023-05-07T08:51:20;95418.03;;;28.63
30001;BMP280;16845;48.670;9.000;2023-05-07T08:53:48;95424.75;;;27.53
30001;BMP280;16845;48.670;9.000;2023-05-07T08:56:15;95421.72;;;28.94
30001;BMP280;16845;48.670;9.000;2023-05-07T08:58:42;95424.69;;;28.74
30001;BMP280;16845;48.670;9.000;2023-05-07T09:01:10;95426.56;;;28.64
30001;BMP280;16845;48.670;9.000;2023-05-07T09:03:39;95420.56;;;29.46
30001;BMP280;16845;48.670;9.000;2023-05-07T09:06:07;95414.44;;;30.51
30001;BMP280;16845;48.670;9.000;2023-05-07T09:08:33;95419.56;;;28.82
30001;BMP280;16845;48.670;9.000;2023-05-07T09:11:00;95422.75;;;30.85
30001;BMP280;16845;48.670;9.000;2023-05-07T09:13:28;95413.69;;;30.26
30001;BMP280;16845;48.670;9.000;2023-05-07T09:15:54;95422.16;;;29.31
30001;BMP280;16845;48.670;9.000;2023-05-07T09:18:21;95419.34;;;30.06
30001;BMP280;16845;48.670;9.000;2023-05-07T09:20:49;95407.63;;;30.50
30001;BMP280;16845;48.670;9.000;2023-05-07T09:23:17;95407.88;;;29.76
30001;BMP280;16845;48.670;9.000;2023-05-07T09:25:43;95420.91;;;29.43
30001;BMP280;16845;48.670;9.000;2023-05-07T09:28:10;95418.44;;;28.84
30001;BMP280;16845;48.670;9.000;2023-05-07T09:30:36;95414.53;;;29.22
30001;BMP280;16845;48.670;9.000;2023-05-07T09:33:03;95402.53;;;30.26
30001;BMP280;16845;48.670;9.000;2023-05-07T09:35:30;95409.00;;;29.58
30001;BMP280;16845;48.670;9.000;2023-05-07T09:37:58;95409.28;;;29.47
30001;BMP280;16845;48.670;9.000;2023-05-07T09:40:29;95401.88;;;29.60
30001;BMP280;16845;48.670;9.000;2023-05-07T09:42:56;95407.38;;;29.89
30001;BMP280;16845;48.670;9.000;2023-05-07T09:45:22;95406.28;;;30.07
30001;BMP280;16845;48.670;9.000;2023-05-07T09:47:51;95408.84;;;30.15
30001;BMP280;16845;48.670;9.000;2023-05-07T09:50:22;95401.22;;;30.30
30001;BMP280;16845;48.670;9.000;2023-05-07T09:52:52;95404.13;;;29.95
30001;BMP280;16845;48.670;9.000;2023-05-07T09:55:19;95405.50;;;31.91
30001;BMP280;16845;48.670;9.000;2023-05-07T09:57:48;95399.16;;;32.31
30001;BMP280;16845;48.670;9.000;2023-05-07T10:00:17;95409.75;;;32.43
30001;BMP280;16845;48.670;9.000;2023-05-07T10:02:45;95395.88;;;31.24
30001;BMP280;16845;48.670;9.000;2023-05-07T10:05:14;95399.72;;;32.98
30001;BMP280;16845;48.670;9.000;2023-05-07T10:07:40;95396.75;;;31.17
30001;BMP280;16845;48.670;9.000;2023-05-07T10:10:07;95383.19;;;33.20
30001;BMP280;16845;48.670;9.000;2023-05-07T10:12:35;95385.34;;;32.16
30001;BMP280;16845;48.670;9.000;2023-05-07T10:15:04;95372.00;;;33.55
30001;BMP280;16845;48.670;9.000;2023-05-07T10:17:31;95370.38;;;30.75
30001;BMP280;16845;48.670;9.000;2023-05-07T10:19:58;95381.22;;;29.76
30001;BMP280;16845;48.670;9.000;2023-05-07T10:22:25;95374.47;;;32.34
30001;BMP280;16845;48.670;9.000;2023-05-07T10:24:52;95377.97;;;30.06
30001;BMP280;16845;48.670;9.000;2023-05-07T10:27:20;95382.72;;;31.79
30001;BMP280;16845;48.670;9.000;2023-05-07T10:29:53;95375.06;;;33.09
30001;BMP280;16845;48.670;9.000;2023-05-07T10:32:38;95376.72;;;31.56
30001;BMP280;16845;48.670;9.000;2023-05-07T10:35:10;95362.72;;;31.65
30001;BMP280;16845;48.670;9.000;2023-05-07T10:37:37;95369.88;;;31.10
30001;BMP280;16845;48.670;9.000;2023-05-07T10:40:04;95366.41;;;30.87
30001;BMP280;16845;48.670;9.000;2023-05-07T10:42:30;95370.81;;;32.07
30001;BMP280;16845;48.670;9.000;2023-05-07T10:44:57;95373.88;;;32.76
30001;BMP280;16845;48.670;9.000;2023-05-07T10:47:23;95373.19;;;31.79
30001;BMP280;16845;48.670;9.000;2023-05-07T10:50:22;95363.31;;;32.12
30001;BMP280;16845;48.670;9.000;2023-05-07T10:53:22;95368.72;;;31.20
30001;BMP280;16845;48.670;9.000;2023-05-07T10:55:50;95355.75;;;32.39
30001;BMP280;16845;48.670;9.000;2023-05-07T10:58:23;95346.63;;;34.61
30001;BMP280;16845;48.670;9.000;2023-05-07T11:00:56;95344.13;;;34.46
30001;BMP280;16845;48.670;9.000;2023-05-07T11:03:23;95356.22;;;31.24
30001;BMP280;16845;48.670;9.000;2023-05-07T11:06:09;95347.47;;;32.07
30001;BMP280;16845;48.670;9.000;2023-05-07T11:08:55;95356.28;;;29.35
30001;BMP280;16845;48.670;9.000;2023-05-07T11:11:46;95339.47;;;29.95
30001;BMP280;16845;48.670;9.000;2023-05-07T11:14:13;95354.41;;;29.77
30001;BMP280;16845;48.670;9.000;2023-05-07T11:16:41;95345.31;;;31.96
30001;BMP280;16845;48.670;9.000;2023-05-07T11:19:09;95347.88;;;30.75
30001;BMP280;16845;48.670;9.000;2023-05-07T11:21:38;95346.31;;;29.72
30001;BMP280;16845;48.670;9.000;2023-05-07T11:24:06;95354.19;;;28.40
30001;BMP280;16845;48.670;9.000;2023-05-07T11:26:42;95356.00;;;27.53
30001;BMP280;16845;48.670;9.000;2023-05-07T11:29:11;95356.72;;;26.67
30001;BMP280;16845;48.670;9.000;2023-05-07T11:31:37;95349.28;;;25.81
30001;BMP280;16845;48.670;9.000;2023-05-07T11:34:04;95353.59;;;24.67
30001;BMP280;16845;48.670;9.000;2023-05-07T11:36:32;95368.97;;;24.27
30001;BMP280;16845;48.670;9.000;2023-05-07T11:39:00;95360.63;;;24.05
30001;BMP280;16845;48.670;9.000;2023-05-07T11:41:34;95359.03;;;23.84
30001;BMP280;16845;48.670;9.000;2023-05-07T11:44:00;95350.88;;;23.17
30001;BMP280;16845;48.670;9.000;2023-05-07T11:46:27;95366.19;;;22.75
30001;BMP280;16845;48.670;9.000;2023-05-07T11:48:54;95374.94;;;22.72
30001;BMP280;16845;48.670;9.000;2023-05-07T11:51:21;95381.00;;;22.38
30001;BMP280;16845;48.670;9.000;2023-05-07T11:53:50;95381.09;;;22.26
30001;BMP280;16845;48.670;9.000;2023-05-07T11:56:19;95381.47;;;22.21
30001;BMP280;16845;48.670;9.000;2023-05-07T11:58:46;95401.03;;;21.66
30001;BMP280;16845;48.670;9.000;2023-05-07T12:01:14;95406.75;;;21.80
30001;BMP280;16845;48.670;9.000;2023-05-07T12:03:41;95402.47;;;21.58
30001;BMP280;16845;48.670;9.000;2023-05-07T12:06:08;95412.19;;;21.18
30001;BMP280;16845;48.670;9.000;2023-05-07T12:08:36;95420.06;;;20.43
30001;BMP280;16845;48.670;9.000;2023-05-07T12:11:06;95415.19;;;20.40
30001;BMP280;16845;48.670;9.000;2023-05-07T12:13:34;95409.19;;;20.04
30001;BMP280;16845;48.670;9.000;2023-05-07T12:16:01;95407.44;;;19.92
30001;BMP280;16845;48.670;9.000;2023-05-07T12:18:28;95412.97;;;19.08
30001;BMP280;16845;48.670;9.000;2023-05-07T12:20:55;95421.91;;;19.01
30001;BMP280;16845;48.670;9.000;2023-05-07T12:23:22;95428.34;;;18.66
30001;BMP280;16845;48.670;9.000;2023-05-07T12:25:48;95430.19;;;18.36
30001;BMP280;16845;48.670;9.000;2023-05-07T12:28:15;95452.66;;;18.14
30001;BMP280;16845;48.670;9.000;2023-05-07T12:30:44;95462.53;;;17.91
30001;BMP280;16845;48.670;9.000;2023-05-07T12:33:11;95473.22;;;17.82
30001;BMP280;16845;48.670;9.000;2023-05-07T12:35:39;95475.69;;;17.83
30001;BMP280;16845;48.670;9.000;2023-05-07T12:38:08;95475.56;;;17.85
30001;BMP280;16845;48.670;9.000;2023-05-07T12:40:36;95484.00;;;17.71
30001;BMP280;16845;48.670;9.000;2023-05-07T12:43:02;95487.16;;;17.45
30001;BMP280;16845;48.670;9.000;2023-05-07T12:45:29;95504.59;;;17.20
30001;BMP280;16845;48.670;9.000;2023-05-07T12:48:01;95509.78;;;17.03
30001;BMP280;16845;48.670;9.000;2023-05-07T12:50:31;95512.53;;;16.83
30001;BMP280;16845;48.670;9.000;2023-05-07T12:52:57;95519.03;;;16.41
30001;BMP280;16845;48.670;9.000;2023-05-07T12:55:24;95535.22;;;16.05
30001;BMP280;16845;48.670;9.000;2023-05-07T12:57:50;95532.53;;;15.74
30001;BMP280;16845;48.670;9.000;2023-05-07T13:00:17;95544.56;;;15.52
30001;BMP280;16845;48.670;9.000;2023-05-07T13:02:44;95543.41;;;15.59
30001;BMP280;16845;48.670;9.000;2023-05-07T13:05:12;95541.59;;;15.44
30001;BMP280;16845;48.670;9.000;2023-05-07T13:07:39;95533.78;;;15.31
30001;BMP280;16845;48.670;9.000;2023-05-07T13:10:07;95513.25;;;15.02
30001;BMP280;16845;48.670;9.000;2023-05-07T13:12:33;95523.47;;;15.17
30001;BMP280;16845;48.670;9.000;2023-05-07T13:15:00;95534.94;;;15.06
30001;BMP280;16845;48.670;9.000;2023-05-07T13:17:26;95537.88;;;14.97
30001;BMP280;16845;48.670;9.000;2023-05-07T13:19:53;95545.25;;;15.01
30001;BMP280;16845;48.670;9.000;2023-05-07T13:22:21;95546.34;;;14.96
30001;BMP280;16845;48.670;9.000;2023-05-07T13:24:47;95560.97;;;14.89
30001;BMP280;16845;48.670;9.000;2023-05-07T13:27:13;95564.25;;;14.73
30001;BMP280;16845;48.670;9.000;2023-05-07T13:29:40;95568.69;;;14.68
30001;BMP280;16845;48.670;9.000;2023-05-07T13:32:06;95568.25;;;14.58
30001;BMP280;16845;48.670;9.000;2023-05-07T13:34:33;95579.56;;;14.50
30001;BMP280;16845;48.670;9.000;2023-05-07T13:36:59;95580.72;;;14.43
30001;BMP280;16845;48.670;9.000;2023-05-07T13:39:27;95584.22;;;14.59
30001;BMP280;16845;48.670;9.000;2023-05-07T13:41:54;95587.50;;;14.61
30001;BMP280;16845;48.670;9.000;2023-05-07T13:44:20;95598.97;;;14.68
30001;BMP280;16845;48.670;9.000;2023-05-07T13:46:46;95594.47;;;14.74
30001;BMP280;16845;48.670;9.000;2023-05-07T13:49:13;95603.75;;;14.92
30001;BMP280;16845;48.670;9.000;2023-05-07T13:51:39;95595.84;;;14.81
30001;BMP280;16845;48.670;9.000;2023-05-07T13:54:06;95598.84;;;14.89
30001;BMP280;16845;48.670;9.000;2023-05-07T13:56:34;95598.84;;;14.89
30001;BMP280;16845;48.670;9.000;2023-05-07T13:59:00;95596.63;;;15.02
30001;BMP280;16845;48.670;9.000;2023-05-07T14:01:27;95597.97;;;15.09
30001;BMP280;16845;48.670;9.000;2023-05-07T14:03:55;95595.25;;;14.95
30001;BMP280;16845;48.670;9.000;2023-05-07T14:06:21;95593.41;;;14.80
30001;BMP280;16845;48.670;9.000;2023-05-07T14:08:48;95595.63;;;14.86